Date,TemperatureHighF,TemperatureAvgF,TemperatureLowF,DewpointHighF,DewpointAvgF,DewpointLowF,HumidityHigh,HumidityAvg,HumidityLow,PressureMaxIn,PressureMinIn,WindSpeedMaxMPH,WindSpeedAvgMPH,GustSpeedMaxMPH,PrecipitationSumIn
2012-12-1,55.4,48.5,43.6,50.1,46.0,41.4,95,91,78,29.45,29.01,4,0,4,0.00
2012-12-2,50.0,47.2,43.0,46.9,45.0,41.0,95,92,82,29.66,28.96,6,1,6,0.00
2012-12-3,54.4,49.1,46.4,47.8,45.8,44.3,94,88,75,29.76,29.35,5,1,5,0.00
2012-12-4,56.5,52.9,46.4,54.3,50.7,44.3,96,92,87,29.69,29.31,8,1,8,0.00
2012-12-5,51.1,44.6,38.2,47.6,41.8,36.3,95,90,80,29.94,29.68,2,0,2,0.00
2012-12-6,50.0,42.0,34.9,44.1,39.3,33.0,94,90,78,29.96,29.89,3,0,3,0.00
2012-12-7,50.6,45.2,42.5,46.9,43.0,40.1,94,92,86,29.93,29.84,3,0,3,0.00
2012-12-8,46.8,43.0,39.4,43.7,40.6,37.5,93,91,86,30.05,29.92,2,0,2,0.00
2012-12-9,47.9,45.0,41.9,45.5,42.4,40.1,94,91,84,30.09,30.03,3,0,3,0.00
2012-12-10,54.7,48.3,46.4,51.5,46.0,44.8,95,92,86,30.12,29.81,2,0,2,0.00
2012-12-11,47.7,44.9,41.0,45.4,42.5,39.2,94,91,86,29.81,29.32,6,0,6,0.00
2012-12-12,48.8,41.5,38.0,43.9,39.3,36.4,95,92,81,29.70,29.41,2,0,2,0.00
2012-12-13,43.6,39.6,37.8,40.4,37.2,36.2,94,91,84,29.73,29.53,2,0,2,0.00
2012-12-14,50.6,40.2,32.6,45.6,37.8,30.5,94,91,80,29.68,29.52,3,0,3,0.00
2012-12-15,40.7,37.3,33.7,39.2,35.5,32.0,95,94,90,29.64,29.32,4,0,4,0.00
2012-12-16,49.9,42.2,34.6,48.1,40.3,33.1,96,93,85,29.55,28.89,9,1,9,0.00
2012-12-17,47.2,40.2,34.0,42.4,37.3,32.3,94,89,77,29.71,29.01,7,1,7,0.00
2012-12-18,36.7,34.0,32.6,35.1,32.4,31.0,95,94,92,29.78,29.68,2,0,2,0.00
2012-12-19,46.1,41.0,34.7,41.0,36.9,32.9,94,85,76,29.74,29.29,7,1,7,0.00
2012-12-20,45.4,38.2,32.9,41.0,36.1,31.0,94,92,83,29.50,29.27,4,0,4,0.00
2012-12-21,45.2,39.4,31.7,43.3,37.8,29.7,96,94,91,29.46,29.26,1,0,1,0.00
2012-12-22,44.5,41.1,39.2,41.3,38.6,36.5,96,91,84,29.40,29.20,6,1,6,0.00
2012-12-23,41.4,39.7,38.7,39.8,37.9,36.6,95,93,89,29.61,29.19,4,0,4,0.00
2012-12-24,46.1,40.6,36.7,42.9,38.5,35.1,95,92,86,29.88,29.54,2,0,2,0.00
2012-12-25,47.2,42.5,39.4,44.7,40.8,37.6,95,94,90,29.69,29.22,2,0,2,0.00
2012-12-26,47.5,42.7,39.6,45.1,40.8,38.0,96,93,88,29.74,29.27,4,0,4,0.00
2012-12-27,47.3,40.6,32.4,42.9,38.0,30.6,95,91,80,29.88,29.64,3,0,3,0.00
2012-12-28,43.4,39.6,36.4,39.9,37.2,34.2,94,91,85,29.84,29.67,1,0,1,0.00
2012-12-29,42.5,38.4,35.5,39.1,35.5,33.6,94,89,81,29.90,29.72,1,0,1,0.00
2012-12-30,40.7,36.7,30.8,36.2,34.0,28.4,93,90,84,29.97,29.79,1,0,1,0.00
2012-12-31,41.2,37.2,33.8,36.7,34.6,31.6,93,90,82,30.04,29.82,1,0,1,0.00